sensor_id;sensor_type;location;lat;lon;timestamp;P1;durP1;ratioP1;P2;durP2;ratioP2
16308;SDS011;8263;48.880;9.276;2023-02-01T00:01:39;135.00;;;125.30;;
16308;SDS011;8263;48.880;9.276;2023-02-01T00:04:07;137.63;;;127.60;;
16308;SDS011;8263;48.880;9.276;2023-02-01T00:06:34;138.40;;;128.32;;
16308;SDS011;8263;48.880;9.276;2023-02-01T00:09:01;137.45;;;127.55;;
16308;SDS011;8263;48.880;9.276;2023-02-01T00:11:27;135.80;;;126.00;;
16308;SDS011;8263;48.880;9.276;2023-02-01T00:13:54;135.48;;;125.80;;
16308;SDS011;8263;48.880;9.276;2023-02-01T00:16:21;136.63;;;126.78;;
16308;SDS011;8263;48.880;9.276;2023-02-01T00:18:48;136.55;;;126.75;;
16308;SDS011;8263;48.880;9.276;2023-02-01T00:21:17;137.45;;;127.55;;
16308;SDS011;8263;48.880;9.276;2023-02-01T00:23:44;136.57;;;126.78;;
16308;SDS011;8263;48.880;9.276;2023-02-01T00:26:12;136.13;;;126.38;;
16308;SDS011;8263;48.880;9.276;2023-02-01T00:28:40;136.35;;;126.57;;
16308;SDS011;8263;48.880;9.276;2023-02-01T00:31:06;138.68;;;128.68;;
16308;SDS011;8263;48.880;9.276;2023-02-01T00:33:33;137.57;;;127.68;;
16308;SDS011;8263;48.880;9.276;2023-02-01T00:36:00;135.57;;;125.88;;
16308;SDS011;8263;48.880;9.276;2023-02-01T00:38:28;135.77;;;126.05;;
16308;SDS011;8263;48.880;9.276;2023-02-01T00:40:55;134.13;;;124.55;;
16308;SDS011;8263;48.880;9.276;2023-02-01T00:43:27;136.00;;;126.25;;
16308;SDS011;8263;48.880;9.276;2023-02-01T00:45:53;137.48;;;127.57;;
16308;SDS011;8263;48.880;9.276;2023-02-01T00:48:20;135.98;;;126.20;;
16308;SDS011;8263;48.880;9.276;2023-02-01T00:50:46;136.90;;;126.95;;
16308;SDS011;8263;48.880;9.276;2023-02-01T00:53:12;137.50;;;127.60;;
16308;SDS011;8263;48.880;9.276;2023-02-01T00:55:40;135.65;;;125.95;;
16308;SDS011;8263;48.880;9.276;2023-02-01T00:58:06;135.82;;;126.13;;
16308;SDS011;8263;48.880;9.276;2023-02-01T01:00:34;136.75;;;126.95;;
16308;SDS011;8263;48.880;9.276;2023-02-01T01:03:00;136.63;;;126.82;;
16308;SDS011;8263;48.880;9.276;2023-02-01T01:05:27;138.02;;;128.10;;
16308;SDS011;8263;48.880;9.276;2023-02-01T01:07:53;136.50;;;126.70;;
16308;SDS011;8263;48.880;9.276;2023-02-01T01:10:20;135.07;;;125.38;;
16308;SDS011;8263;48.880;9.276;2023-02-01T01:12:48;136.60;;;126.80;;
16308;SDS011;8263;48.880;9.276;2023-02-01T01:15:15;136.40;;;126.60;;
16308;SDS011;8263;48.880;9.276;2023-02-01T01:17:42;135.27;;;125.57;;
16308;SDS011;8263;48.880;9.276;2023-02-01T01:20:09;135.77;;;126.07;;
16308;SDS011;8263;48.880;9.276;2023-02-01T01:22:35;138.15;;;128.18;;
16308;SDS011;8263;48.880;9.276;2023-02-01T01:25:02;138.07;;;128.07;;
16308;SDS011;8263;48.880;9.276;2023-02-01T01:27:28;137.10;;;127.22;;
16308;SDS011;8263;48.880;9.276;2023-02-01T01:29:56;137.73;;;127.82;;
16308;SDS011;8263;48.880;9.276;2023-02-01T01:32:22;138.20;;;128.20;;
16308;SDS011;8263;48.880;9.276;2023-02-01T01:34:49;137.80;;;127.90;;
16308;SDS011;8263;48.880;9.276;2023-02-01T01:37:15;139.05;;;129.00;;
16308;SDS011;8263;48.880;9.276;2023-02-01T01:39:42;138.15;;;128.15;;
16308;SDS011;8263;48.880;9.276;2023-02-01T01:42:09;135.65;;;125.95;;
16308;SDS011;8263;48.880;9.276;2023-02-01T01:47:23;137.43;;;127.53;;
16308;SDS011;8263;48.880;9.276;2023-02-01T01:49:50;136.73;;;126.82;;
16308;SDS011;8263;48.880;9.276;2023-02-01T01:52:16;136.73;;;126.90;;
16308;SDS011;8263;48.880;9.276;2023-02-01T01:54:45;136.05;;;126.28;;
16308;SDS011;8263;48.880;9.276;2023-02-01T01:57:13;136.50;;;126.70;;
16308;SDS011;8263;48.880;9.276;2023-02-01T01:59:41;137.85;;;127.93;;
16308;SDS011;8263;48.880;9.276;2023-02-01T02:02:09;137.82;;;127.90;;
16308;SDS011;8263;48.880;9.276;2023-02-01T02:04:37;136.68;;;126.88;;
16308;SDS011;8263;48.880;9.276;2023-02-01T02:07:04;136.45;;;126.65;;
16308;SDS011;8263;48.880;9.276;2023-02-01T02:09:31;135.68;;;125.95;;
16308;SDS011;8263;48.880;9.276;2023-02-01T02:11:58;136.10;;;126.20;;
16308;SDS011;8263;48.880;9.276;2023-02-01T02:14:24;137.82;;;127.90;;
16308;SDS011;8263;48.880;9.276;2023-02-01T02:16:59;136.50;;;126.60;;
16308;SDS011;8263;48.880;9.276;2023-02-01T02:22:15;138.63;;;128.27;;
16308;SDS011;8263;48.880;9.276;2023-02-01T02:24:51;138.15;;;128.15;;
16308;SDS011;8263;48.880;9.276;2023-02-01T02:27:23;137.48;;;127.57;;
16308;SDS011;8263;48.880;9.276;2023-02-01T02:30:02;137.30;;;127.40;;
16308;SDS011;8263;48.880;9.276;2023-02-01T02:32:39;137.00;;;127.15;;
16308;SDS011;8263;48.880;9.276;2023-02-01T02:35:14;136.63;;;126.82;;
16308;SDS011;8263;48.880;9.276;2023-02-01T02:37:43;136.98;;;127.13;;
16308;SDS011;8263;48.880;9.276;2023-02-01T02:40:13;136.07;;;126.30;;
16308;SDS011;8263;48.880;9.276;2023-02-01T02:42:42;135.48;;;125.78;;
16308;SDS011;8263;48.880;9.276;2023-02-01T02:45:30;135.52;;;125.82;;
16308;SDS011;8263;48.880;9.276;2023-02-01T02:48:17;137.90;;;127.95;;
16308;SDS011;8263;48.880;9.276;2023-02-01T02:50:47;135.90;;;126.18;;
16308;SDS011;8263;48.880;9.276;2023-02-01T02:53:34;135.55;;;125.80;;
16308;SDS011;8263;48.880;9.276;2023-02-01T02:56:20;137.27;;;127.40;;
16308;SDS011;8263;48.880;9.276;2023-02-01T02:59:04;137.65;;;127.75;;
16308;SDS011;8263;48.880;9.276;2023-02-01T03:01:50;137.18;;;127.30;;
16308;SDS011;8263;48.880;9.276;2023-02-01T03:04:34;137.48;;;127.57;;
16308;SDS011;8263;48.880;9.276;2023-02-01T03:07:10;136.70;;;126.90;;
16308;SDS011;8263;48.880;9.276;2023-02-01T03:09:37;136.52;;;126.72;;
16308;SDS011;8263;48.880;9.276;2023-02-01T03:12:07;137.23;;;127.35;;
16308;SDS011;8263;48.880;9.276;2023-02-01T03:14:52;137.32;;;127.43;;
16308;SDS011;8263;48.880;9.276;2023-02-01T03:17:21;136.80;;;127.00;;
16308;SDS011;8263;48.880;9.276;2023-02-01T03:19:48;137.25;;;127.35;;
16308;SDS011;8263;48.880;9.276;2023-02-01T03:22:17;138.10;;;128.10;;
16308;SDS011;8263;48.880;9.276;2023-02-01T03:24:46;137.50;;;127.60;;
16308;SDS011;8263;48.880;9.276;2023-02-01T03:27:15;138.75;;;128.38;;
16308;SDS011;8263;48.880;9.276;2023-02-01T03:29:44;135.73;;;126.03;;
16308;SDS011;8263;48.880;9.276;2023-02-01T03:32:11;137.60;;;127.55;;
16308;SDS011;8263;48.880;9.276;2023-02-01T03:34:38;135.93;;;126.18;;
16308;SDS011;8263;48.880;9.276;2023-02-01T03:37:06;136.57;;;126.78;;
16308;SDS011;8263;48.880;9.276;2023-02-01T03:39:36;138.18;;;128.18;;
16308;SDS011;8263;48.880;9.276;2023-02-01T03:42:04;136.38;;;126.57;;
16308;SDS011;8263;48.880;9.276;2023-02-01T03:44:31;136.52;;;126.63;;
16308;SDS011;8263;48.880;9.276;2023-02-01T03:46:59;136.25;;;126.45;;
16308;SDS011;8263;48.880;9.276;2023-02-01T03:49:29;137.82;;;127.90;;
16308;SDS011;8263;48.880;9.276;2023-02-01T03:51:57;137.70;;;127.80;;
16308;SDS011;8263;48.880;9.276;2023-02-01T03:54:24;138.15;;;128.18;;
16308;SDS011;8263;48.880;9.276;2023-02-01T03:56:53;137.00;;;127.15;;
16308;SDS011;8263;48.880;9.276;2023-02-01T03:59:21;136.07;;;126.28;;
16308;SDS011;8263;48.880;9.276;2023-02-01T04:01:48;137.35;;;127.45;;
16308;SDS011;8263;48.880;9.276;2023-02-01T04:04:15;135.63;;;125.93;;
16308;SDS011;8263;48.880;9.276;2023-02-01T04:06:44;136.57;;;126.78;;
16308;SDS011;8263;48.880;9.276;2023-02-01T04:09:11;136.50;;;126.70;;
16308;SDS011;8263;48.880;9.276;2023-02-01T04:11:37;136.05;;;126.28;;
16308;SDS011;8263;48.880;9.276;2023-02-01T04:14:05;136.48;;;126.68;;
16308;SDS011;8263;48.880;9.276;2023-02-01T04:16:31;136.30;;;126.50;;
16308;SDS011;8263;48.880;9.276;2023-02-01T04:18:58;136.23;;;126.45;;
16308;SDS011;8263;48.880;9.276;2023-02-01T04:21:24;137.40;;;127.47;;
16308;SDS011;8263;48.880;9.276;2023-02-01T04:23:51;137.07;;;127.20;;
16308;SDS011;8263;48.880;9.276;2023-02-01T04:26:17;138.82;;;128.73;;
16308;SDS011;8263;48.880;9.276;2023-02-01T04:28:44;136.98;;;127.10;;
16308;SDS011;8263;48.880;9.276;2023-02-01T04:31:14;138.48;;;128.38;;
16308;SDS011;8263;48.880;9.276;2023-02-01T04:33:40;136.85;;;127.05;;
16308;SDS011;8263;48.880;9.276;2023-02-01T04:36:07;137.52;;;127.63;;
16308;SDS011;8263;48.880;9.276;2023-02-01T04:38:33;138.38;;;128.10;;
16308;SDS011;8263;48.880;9.276;2023-02-01T04:41:00;135.45;;;125.75;;
16308;SDS011;8263;48.880;9.276;2023-02-01T04:43:26;135.43;;;125.72;;
16308;SDS011;8263;48.880;9.276;2023-02-01T04:45:53;136.23;;;126.43;;
16308;SDS011;8263;48.880;9.276;2023-02-01T04:48:21;134.93;;;125.28;;
16308;SDS011;8263;48.880;9.276;2023-02-01T04:50:48;136.38;;;126.60;;
16308;SDS011;8263;48.880;9.276;2023-02-01T04:53:14;137.73;;;127.80;;
16308;SDS011;8263;48.880;9.276;2023-02-01T04:55:41;136.95;;;127.13;;
16308;SDS011;8263;48.880;9.276;2023-02-01T04:58:07;136.85;;;126.97;;
16308;SDS011;8263;48.880;9.276;2023-02-01T05:00:34;136.70;;;126.88;;
16308;SDS011;8263;48.880;9.276;2023-02-01T05:03:00;137.30;;;127.40;;
16308;SDS011;8263;48.880;9.276;2023-02-01T05:05:28;136.75;;;126.90;;
16308;SDS011;8263;48.880;9.276;2023-02-01T05:07:55;136.57;;;126.78;;
16308;SDS011;8263;48.880;9.276;2023-02-01T05:10:21;136.63;;;126.72;;
16308;SDS011;8263;48.880;9.276;2023-02-01T05:12:48;136.00;;;126.20;;
16308;SDS011;8263;48.880;9.276;2023-02-01T05:15:32;137.63;;;127.72;;
16308;SDS011;8263;48.880;9.276;2023-02-01T05:17:58;135.45;;;125.63;;
16308;SDS011;8263;48.880;9.276;2023-02-01T05:20:25;136.98;;;127.07;;
16308;SDS011;8263;48.880;9.276;2023-02-01T05:22:52;137.93;;;127.97;;
16308;SDS011;8263;48.880;9.276;2023-02-01T05:25:19;137.93;;;127.95;;
16308;SDS011;8263;48.880;9.276;2023-02-01T05:27:45;135.30;;;125.60;;
16308;SDS011;8263;48.880;9.276;2023-02-01T05:30:12;135.02;;;125.38;;
16308;SDS011;8263;48.880;9.276;2023-02-01T05:32:38;137.32;;;127.43;;
16308;SDS011;8263;48.880;9.276;2023-02-01T05:35:07;137.18;;;127.25;;
16308;SDS011;8263;48.880;9.276;2023-02-01T05:37:33;135.45;;;125.75;;
16308;SDS011;8263;48.880;9.276;2023-02-01T05:40:02;135.43;;;125.72;;
16308;SDS011;8263;48.880;9.276;2023-02-01T05:42:28;135.60;;;125.88;;
16308;SDS011;8263;48.880;9.276;2023-02-01T05:44:54;136.55;;;126.70;;
16308;SDS011;8263;48.880;9.276;2023-02-01T05:47:21;136.40;;;126.50;;
16308;SDS011;8263;48.880;9.276;2023-02-01T05:49:48;137.02;;;127.13;;
16308;SDS011;8263;48.880;9.276;2023-02-01T05:52:14;137.88;;;127.97;;
16308;SDS011;8263;48.880;9.276;2023-02-01T05:54:44;136.20;;;126.40;;
16308;SDS011;8263;48.880;9.276;2023-02-01T05:57:12;134.98;;;125.32;;
16308;SDS011;8263;48.880;9.276;2023-02-01T05:59:38;136.85;;;127.00;;
16308;SDS011;8263;48.880;9.276;2023-02-01T06:02:06;135.40;;;125.70;;
16308;SDS011;8263;48.880;9.276;2023-02-01T06:04:33;135.98;;;126.10;;
16308;SDS011;8263;48.880;9.276;2023-02-01T06:07:00;136.70;;;126.88;;
16308;SDS011;8263;48.880;9.276;2023-02-01T06:09:26;137.77;;;127.88;;
16308;SDS011;8263;48.880;9.276;2023-02-01T06:11:54;136.50;;;126.70;;
16308;SDS011;8263;48.880;9.276;2023-02-01T06:14:21;137.18;;;127.18;;
16308;SDS011;8263;48.880;9.276;2023-02-01T06:16:48;136.00;;;126.25;;
16308;SDS011;8263;48.880;9.276;2023-02-01T06:19:15;136.05;;;126.22;;
16308;SDS011;8263;48.880;9.276;2023-02-01T06:21:41;136.75;;;126.85;;
16308;SDS011;8263;48.880;9.276;2023-02-01T06:24:08;137.52;;;127.63;;
16308;SDS011;8263;48.880;9.276;2023-02-01T06:26:34;136.77;;;126.97;;
16308;SDS011;8263;48.880;9.276;2023-02-01T06:29:01;136.30;;;126.30;;
16308;SDS011;8263;48.880;9.276;2023-02-01T06:31:29;136.00;;;126.25;;
16308;SDS011;8263;48.880;9.276;2023-02-01T06:33:57;134.82;;;125.22;;
16308;SDS011;8263;48.880;9.276;2023-02-01T06:36:23;136.55;;;126.75;;
16308;SDS011;8263;48.880;9.276;2023-02-01T06:38:49;135.40;;;125.70;;
16308;SDS011;8263;48.880;9.276;2023-02-01T06:41:16;136.88;;;127.05;;
16308;SDS011;8263;48.880;9.276;2023-02-01T06:43:43;136.90;;;127.10;;
16308;SDS011;8263;48.880;9.276;2023-02-01T06:46:11;137.43;;;127.53;;
16308;SDS011;8263;48.880;9.276;2023-02-01T06:48:39;135.27;;;125.57;;
16308;SDS011;8263;48.880;9.276;2023-02-01T06:51:06;135.50;;;125.80;;
16308;SDS011;8263;48.880;9.276;2023-02-01T06:53:35;135.68;;;125.97;;
16308;SDS011;8263;48.880;9.276;2023-02-01T06:56:02;135.50;;;125.80;;
16308;SDS011;8263;48.880;9.276;2023-02-01T06:58:29;135.02;;;125.28;;
16308;SDS011;8263;48.880;9.276;2023-02-01T07:00:55;136.35;;;126.57;;
16308;SDS011;8263;48.880;9.276;2023-02-01T07:03:22;135.50;;;125.80;;
16308;SDS011;8263;48.880;9.276;2023-02-01T07:05:53;134.50;;;124.90;;
16308;SDS011;8263;48.880;9.276;2023-02-01T07:08:20;135.55;;;125.85;;
16308;SDS011;8263;48.880;9.276;2023-02-01T07:10:46;136.77;;;126.53;;
16308;SDS011;8263;48.880;9.276;2023-02-01T07:13:12;137.80;;;127.90;;
16308;SDS011;8263;48.880;9.276;2023-02-01T07:15:39;135.10;;;125.40;;
16308;SDS011;8263;48.880;9.276;2023-02-01T07:18:05;137.52;;;127.63;;
16308;SDS011;8263;48.880;9.276;2023-02-01T07:20:32;135.57;;;125.78;;
16308;SDS011;8263;48.880;9.276;2023-02-01T07:23:00;134.52;;;124.93;;
16308;SDS011;8263;48.880;9.276;2023-02-01T07:25:26;135.93;;;126.13;;
16308;SDS011;8263;48.880;9.276;2023-02-01T07:27:52;135.13;;;125.43;;
16308;SDS011;8263;48.880;9.276;2023-02-01T07:30:19;137.55;;;126.55;;
16308;SDS011;8263;48.880;9.276;2023-02-01T07:32:45;134.80;;;125.20;;
16308;SDS011;8263;48.880;9.276;2023-02-01T07:35:12;136.15;;;126.38;;
16308;SDS011;8263;48.880;9.276;2023-02-01T07:37:39;134.80;;;125.20;;
16308;SDS011;8263;48.880;9.276;2023-02-01T07:40:08;136.63;;;126.72;;
16308;SDS011;8263;48.880;9.276;2023-02-01T07:42:35;136.05;;;126.32;;
16308;SDS011;8263;48.880;9.276;2023-02-01T07:45:01;135.35;;;125.65;;
16308;SDS011;8263;48.880;9.276;2023-02-01T07:47:29;134.25;;;124.70;;
16308;SDS011;8263;48.880;9.276;2023-02-01T07:49:55;132.90;;;123.45;;
16308;SDS011;8263;48.880;9.276;2023-02-01T07:52:22;138.53;;;128.63;;
16308;SDS011;8263;48.880;9.276;2023-02-01T07:54:48;135.25;;;125.60;;
16308;SDS011;8263;48.880;9.276;2023-02-01T07:57:16;136.07;;;126.30;;
16308;SDS011;8263;48.880;9.276;2023-02-01T07:59:42;135.57;;;125.85;;
16308;SDS011;8263;48.880;9.276;2023-02-01T08:02:23;135.63;;;125.93;;
16308;SDS011;8263;48.880;9.276;2023-02-01T08:04:49;135.02;;;125.30;;
16308;SDS011;8263;48.880;9.276;2023-02-01T08:07:16;133.82;;;124.28;;
16308;SDS011;8263;48.880;9.276;2023-02-01T08:09:42;133.63;;;124.13;;
16308;SDS011;8263;48.880;9.276;2023-02-01T08:12:09;136.02;;;126.30;;
16308;SDS011;8263;48.880;9.276;2023-02-01T08:14:37;134.80;;;125.18;;
16308;SDS011;8263;48.880;9.276;2023-02-01T08:17:05;134.10;;;124.50;;
16308;SDS011;8263;48.880;9.276;2023-02-01T08:19:31;135.18;;;125.47;;
16308;SDS011;8263;48.880;9.276;2023-02-01T08:21:58;134.32;;;124.68;;
16308;SDS011;8263;48.880;9.276;2023-02-01T08:24:27;136.38;;;126.57;;
16308;SDS011;8263;48.880;9.276;2023-02-01T08:26:53;136.52;;;126.65;;
16308;SDS011;8263;48.880;9.276;2023-02-01T08:29:19;135.30;;;125.30;;
16308;SDS011;8263;48.880;9.276;2023-02-01T08:31:47;134.75;;;125.07;;
16308;SDS011;8263;48.880;9.276;2023-02-01T08:34:14;134.20;;;124.60;;
16308;SDS011;8263;48.880;9.276;2023-02-01T08:36:40;136.55;;;126.60;;
16308;SDS011;8263;48.880;9.276;2023-02-01T08:39:08;135.07;;;125.38;;
16308;SDS011;8263;48.880;9.276;2023-02-01T08:41:35;135.57;;;125.88;;
16308;SDS011;8263;48.880;9.276;2023-02-01T08:44:01;136.63;;;126.30;;
16308;SDS011;8263;48.880;9.276;2023-02-01T08:46:27;137.05;;;127.25;;
16308;SDS011;8263;48.880;9.276;2023-02-01T08:48:55;135.55;;;125.85;;
16308;SDS011;8263;48.880;9.276;2023-02-01T08:51:22;136.18;;;126.30;;
16308;SDS011;8263;48.880;9.276;2023-02-01T08:53:49;135.05;;;125.35;;
16308;SDS011;8263;48.880;9.276;2023-02-01T08:56:16;134.38;;;124.78;;
16308;SDS011;8263;48.880;9.276;2023-02-01T08:58:43;134.50;;;124.90;;
16308;SDS011;8263;48.880;9.276;2023-02-01T09:01:10;135.07;;;125.28;;
16308;SDS011;8263;48.880;9.276;2023-02-01T09:03:38;136.25;;;126.50;;
16308;SDS011;8263;48.880;9.276;2023-02-01T09:06:06;135.57;;;125.88;;
16308;SDS011;8263;48.880;9.276;2023-02-01T09:08:33;134.85;;;125.25;;
16308;SDS011;8263;48.880;9.276;2023-02-01T09:11:00;134.35;;;124.75;;
16308;SDS011;8263;48.880;9.276;2023-02-01T09:13:27;134.65;;;125.05;;
16308;SDS011;8263;48.880;9.276;2023-02-01T09:15:53;134.73;;;124.82;;
16308;SDS011;8263;48.880;9.276;2023-02-01T09:18:20;135.07;;;125.25;;
16308;SDS011;8263;48.880;9.276;2023-02-01T09:20:46;135.30;;;125.60;;
16308;SDS011;8263;48.880;9.276;2023-02-01T09:23:14;135.52;;;125.85;;
16308;SDS011;8263;48.880;9.276;2023-02-01T09:25:41;135.05;;;125.25;;
16308;SDS011;8263;48.880;9.276;2023-02-01T09:28:08;135.10;;;125.47;;
16308;SDS011;8263;48.880;9.276;2023-02-01T09:30:34;133.43;;;123.93;;
16308;SDS011;8263;48.880;9.276;2023-02-01T09:33:01;134.55;;;124.93;;
16308;SDS011;8263;48.880;9.276;2023-02-01T09:35:27;134.05;;;124.45;;
16308;SDS011;8263;48.880;9.276;2023-02-01T09:37:54;135.35;;;125.68;;
16308;SDS011;8263;48.880;9.276;2023-02-01T09:40:22;135.00;;;125.40;;
16308;SDS011;8263;48.880;9.276;2023-02-01T09:42:53;136.52;;;126.57;;
16308;SDS011;8263;48.880;9.276;2023-02-01T09:45:26;135.70;;;125.85;;
16308;SDS011;8263;48.880;9.276;2023-02-01T09:47:58;132.98;;;123.53;;
16308;SDS011;8263;48.880;9.276;2023-02-01T09:50:28;134.98;;;125.35;;
16308;SDS011;8263;48.880;9.276;2023-02-01T09:52:57;134.70;;;125.10;;
16308;SDS011;8263;48.880;9.276;2023-02-01T09:55:28;133.13;;;123.72;;
16308;SDS011;8263;48.880;9.276;2023-02-01T09:57:58;133.90;;;124.38;;
16308;SDS011;8263;48.880;9.276;2023-02-01T10:00:27;135.35;;;125.65;;
16308;SDS011;8263;48.880;9.276;2023-02-01T10:02:55;132.90;;;123.38;;
16308;SDS011;8263;48.880;9.276;2023-02-01T10:05:27;134.95;;;125.35;;
16308;SDS011;8263;48.880;9.276;2023-02-01T10:07:58;134.15;;;124.53;;
16308;SDS011;8263;48.880;9.276;2023-02-01T10:10:29;133.15;;;123.72;;
16308;SDS011;8263;48.880;9.276;2023-02-01T10:13:04;135.65;;;125.00;;
16308;SDS011;8263;48.880;9.276;2023-02-01T10:15:40;134.05;;;124.47;;
16308;SDS011;8263;48.880;9.276;2023-02-01T10:18:23;129.88;;;120.75;;
16308;SDS011;8263;48.880;9.276;2023-02-01T10:20:55;132.68;;;123.28;;
16308;SDS011;8263;48.880;9.276;2023-02-01T10:23:29;134.98;;;125.38;;
16308;SDS011;8263;48.880;9.276;2023-02-01T10:26:00;132.52;;;123.15;;
16308;SDS011;8263;48.880;9.276;2023-02-01T10:28:29;131.93;;;122.63;;
16308;SDS011;8263;48.880;9.276;2023-02-01T10:30:59;132.15;;;122.68;;
16308;SDS011;8263;48.880;9.276;2023-02-01T10:33:26;132.68;;;123.28;;
16308;SDS011;8263;48.880;9.276;2023-02-01T10:35:54;133.15;;;123.68;;
16308;SDS011;8263;48.880;9.276;2023-02-01T10:38:24;134.45;;;124.85;;
16308;SDS011;8263;48.880;9.276;2023-02-01T10:40:52;130.80;;;121.60;;
16308;SDS011;8263;48.880;9.276;2023-02-01T10:43:21;131.85;;;122.55;;
16308;SDS011;8263;48.880;9.276;2023-02-01T10:45:47;133.30;;;123.82;;
16308;SDS011;8263;48.880;9.276;2023-02-01T10:48:13;133.95;;;124.38;;
16308;SDS011;8263;48.880;9.276;2023-02-01T10:50:43;135.50;;;125.25;;
16308;SDS011;8263;48.880;9.276;2023-02-01T10:53:11;132.60;;;123.22;;
16308;SDS011;8263;48.880;9.276;2023-02-01T10:55:40;132.45;;;123.07;;
16308;SDS011;8263;48.880;9.276;2023-02-01T10:58:07;133.60;;;124.10;;
16308;SDS011;8263;48.880;9.276;2023-02-01T11:00:43;133.57;;;123.70;;
16308;SDS011;8263;48.880;9.276;2023-02-01T11:03:19;131.10;;;121.88;;
16308;SDS011;8263;48.880;9.276;2023-02-01T11:05:47;130.50;;;121.32;;
16308;SDS011;8263;48.880;9.276;2023-02-01T11:08:14;132.48;;;123.13;;
16308;SDS011;8263;48.880;9.276;2023-02-01T11:10:43;131.43;;;122.15;;
16308;SDS011;8263;48.880;9.276;2023-02-01T11:13:11;132.82;;;123.10;;
16308;SDS011;8263;48.880;9.276;2023-02-01T11:15:43;130.77;;;121.57;;
16308;SDS011;8263;48.880;9.276;2023-02-01T11:18:14;132.73;;;123.32;;
16308;SDS011;8263;48.880;9.276;2023-02-01T11:20:42;132.68;;;123.00;;
16308;SDS011;8263;48.880;9.276;2023-02-01T11:23:12;133.88;;;124.32;;
16308;SDS011;8263;48.880;9.276;2023-02-01T11:25:40;133.68;;;124.07;;
16308;SDS011;8263;48.880;9.276;2023-02-01T11:28:13;132.57;;;123.18;;
16308;SDS011;8263;48.880;9.276;2023-02-01T11:30:41;132.50;;;123.07;;
16308;SDS011;8263;48.880;9.276;2023-02-01T11:33:15;132.43;;;123.03;;
16308;SDS011;8263;48.880;9.276;2023-02-01T11:35:41;130.85;;;121.63;;
16308;SDS011;8263;48.880;9.276;2023-02-01T11:38:15;132.93;;;123.55;;
16308;SDS011;8263;48.880;9.276;2023-02-01T11:40:44;132.27;;;122.80;;
16308;SDS011;8263;48.880;9.276;2023-02-01T11:43:13;131.63;;;122.28;;
16308;SDS011;8263;48.880;9.276;2023-02-01T11:45:41;132.45;;;123.05;;
16308;SDS011;8263;48.880;9.276;2023-02-01T11:48:20;132.48;;;123.10;;
16308;SDS011;8263;48.880;9.276;2023-02-01T11:50:48;131.93;;;122.63;;
16308;SDS011;8263;48.880;9.276;2023-02-01T11:53:20;134.13;;;124.63;;
16308;SDS011;8263;48.880;9.276;2023-02-01T11:55:55;132.15;;;122.85;;
16308;SDS011;8263;48.880;9.276;2023-02-01T11:58:26;133.40;;;124.00;;
16308;SDS011;8263;48.880;9.276;2023-02-01T12:01:04;132.20;;;122.90;;
16308;SDS011;8263;48.880;9.276;2023-02-01T12:03:45;132.07;;;122.78;;
16308;SDS011;8263;48.880;9.276;2023-02-01T12:06:17;132.38;;;123.05;;
16308;SDS011;8263;48.880;9.276;2023-02-01T12:08:52;133.30;;;123.90;;
16308;SDS011;8263;48.880;9.276;2023-02-01T12:11:32;129.73;;;120.50;;
16308;SDS011;8263;48.880;9.276;2023-02-01T12:14:05;133.75;;;124.30;;
16308;SDS011;8263;48.880;9.276;2023-02-01T12:16:37;130.95;;;121.75;;
16308;SDS011;8263;48.880;9.276;2023-02-01T12:19:21;133.40;;;123.35;;
16308;SDS011;8263;48.880;9.276;2023-02-01T12:21:54;131.00;;;121.80;;
16308;SDS011;8263;48.880;9.276;2023-02-01T12:24:26;131.60;;;122.35;;
16308;SDS011;8263;48.880;9.276;2023-02-01T12:27:00;133.05;;;123.55;;
16308;SDS011;8263;48.880;9.276;2023-02-01T12:35:09;132.20;;;122.85;;
16308;SDS011;8263;48.880;9.276;2023-02-01T12:37:43;134.00;;;124.50;;
16308;SDS011;8263;48.880;9.276;2023-02-01T12:40:21;132.98;;;123.57;;
16308;SDS011;8263;48.880;9.276;2023-02-01T12:42:53;131.18;;;121.97;;
16308;SDS011;8263;48.880;9.276;2023-02-01T12:45:25;133.13;;;123.72;;
16308;SDS011;8263;48.880;9.276;2023-02-01T12:47:53;131.60;;;122.30;;
16308;SDS011;8263;48.880;9.276;2023-02-01T12:50:23;131.88;;;122.60;;
16308;SDS011;8263;48.880;9.276;2023-02-01T12:52:51;130.93;;;121.72;;
16308;SDS011;8263;48.880;9.276;2023-02-01T12:55:20;131.95;;;122.65;;
16308;SDS011;8263;48.880;9.276;2023-02-01T12:57:49;132.50;;;123.13;;
16308;SDS011;8263;48.880;9.276;2023-02-01T13:00:18;131.52;;;122.13;;
16308;SDS011;8263;48.880;9.276;2023-02-01T13:02:50;132.30;;;122.70;;
16308;SDS011;8263;48.880;9.276;2023-02-01T13:05:18;130.35;;;121.25;;
16308;SDS011;8263;48.880;9.276;2023-02-01T13:07:47;132.32;;;123.03;;
16308;SDS011;8263;48.880;9.276;2023-02-01T13:10:16;131.85;;;122.55;;
16308;SDS011;8263;48.880;9.276;2023-02-01T13:12:47;131.93;;;122.63;;
16308;SDS011;8263;48.880;9.276;2023-02-01T13:15:16;132.57;;;123.28;;
16308;SDS011;8263;48.880;9.276;2023-02-01T13:17:44;129.68;;;120.53;;
16308;SDS011;8263;48.880;9.276;2023-02-01T13:20:15;129.90;;;120.78;;
16308;SDS011;8263;48.880;9.276;2023-02-01T13:22:43;132.40;;;123.07;;
16308;SDS011;8263;48.880;9.276;2023-02-01T13:25:13;131.10;;;121.90;;
16308;SDS011;8263;48.880;9.276;2023-02-01T13:27:41;130.85;;;121.68;;
16308;SDS011;8263;48.880;9.276;2023-02-01T13:30:11;132.90;;;123.40;;
16308;SDS011;8263;48.880;9.276;2023-02-01T13:32:53;132.77;;;122.50;;
16308;SDS011;8263;48.880;9.276;2023-02-01T13:35:36;133.38;;;123.50;;
16308;SDS011;8263;48.880;9.276;2023-02-01T13:38:17;133.32;;;123.90;;
16308;SDS011;8263;48.880;9.276;2023-02-01T13:40:51;130.88;;;121.68;;
16308;SDS011;8263;48.880;9.276;2023-02-01T13:43:23;132.13;;;122.82;;
16308;SDS011;8263;48.880;9.276;2023-02-01T13:45:51;131.98;;;122.68;;
16308;SDS011;8263;48.880;9.276;2023-02-01T13:48:20;130.40;;;121.30;;
16308;SDS011;8263;48.880;9.276;2023-02-01T13:50:49;129.88;;;120.78;;
16308;SDS011;8263;48.880;9.276;2023-02-01T13:53:18;129.70;;;120.60;;
16308;SDS011;8263;48.880;9.276;2023-02-01T13:55:50;130.93;;;121.45;;
16308;SDS011;8263;48.880;9.276;2023-02-01T13:58:22;131.75;;;122.50;;
16308;SDS011;8263;48.880;9.276;2023-02-01T14:01:31;132.68;;;123.28;;
16308;SDS011;8263;48.880;9.276;2023-02-01T14:03:49;131.10;;;121.90;;
16308;SDS011;8263;48.880;9.276;2023-02-01T14:06:36;132.82;;;123.47;;
16308;SDS011;8263;48.880;9.276;2023-02-01T14:09:17;131.40;;;122.20;;
16308;SDS011;8263;48.880;9.276;2023-02-01T14:11:45;132.07;;;122.78;;
16308;SDS011;8263;48.880;9.276;2023-02-01T14:22:51;131.52;;;122.32;;
16308;SDS011;8263;48.880;9.276;2023-02-01T14:25:31;131.60;;;122.13;;
16308;SDS011;8263;48.880;9.276;2023-02-01T14:27:57;129.80;;;120.70;;
16308;SDS011;8263;48.880;9.276;2023-02-01T14:30:24;130.10;;;121.00;;
16308;SDS011;8263;48.880;9.276;2023-02-01T14:32:51;130.77;;;121.50;;
16308;SDS011;8263;48.880;9.276;2023-02-01T14:35:18;130.63;;;121.40;;
16308;SDS011;8263;48.880;9.276;2023-02-01T14:37:45;130.88;;;121.40;;
16308;SDS011;8263;48.880;9.276;2023-02-01T14:40:17;130.10;;;121.00;;